Tullahassee, Oklahoma
Current Conditions -  °F | °C
As of 5:53 PM on Friday 28 Nov 2014 (Local Time) from KMKO Reporting Station
Clear Clear  
Wind Chill: 56°   Ceiling: Unl
Heat Index: 56°   Visibility: 10mi
Dew Point: 41°   Wind: 9mph
Humidity: 57%   Direction: 170°S
Pressure: 29.94"   Gusts: NA
Location:  35.84°N, 95.44°W
Report Text: KMKO 282353Z AUTO 17008KT 10SM CLR 13/05 A2994 RMK AO2 SLP140 T01330050 10183 20133 55009
Loading
Personal Weather Stations






























Interactive Weather Map New forecast layout! Learn more

10-Day Weather Forecast

Advertisements
Track Severe Weather on mobile